createdAt,value
2018-01-29T00:00:36.998Z,0
2018-01-29T00:01:39.519Z,0
2018-01-29T00:02:42.298Z,0
2018-01-29T00:03:44.792Z,0
2018-01-29T00:04:47.586Z,0
2018-01-29T00:05:50.079Z,0
2018-01-29T00:06:52.579Z,0
2018-01-29T00:07:55.079Z,0
2018-01-29T00:08:57.585Z,0
2018-01-29T00:10:00.087Z,0
2018-01-29T00:11:03.146Z,0
2018-01-29T00:12:05.646Z,0
2018-01-29T00:13:08.161Z,0
2018-01-29T00:14:10.652Z,0
2018-01-29T00:15:13.442Z,0
2018-01-29T00:16:15.936Z,0
2018-01-29T00:17:18.433Z,0
2018-01-29T00:18:20.945Z,0
2018-01-29T00:19:23.444Z,0
2018-01-29T00:20:25.937Z,0
2018-01-29T00:21:28.728Z,0
2018-01-29T00:22:31.228Z,0
2018-01-29T00:23:33.732Z,0
2018-01-29T00:24:36.232Z,0
2018-01-29T00:25:38.717Z,0
2018-01-29T00:26:41.218Z,0
2018-01-29T00:27:43.725Z,0
2018-01-29T00:28:46.218Z,0
2018-01-29T00:29:48.705Z,0
2018-01-29T00:30:51.202Z,0
2018-01-29T00:31:53.698Z,0
2018-01-29T00:32:56.208Z,0
2018-01-29T00:33:58.715Z,0
2018-01-29T00:35:01.202Z,0
2018-01-29T00:36:03.703Z,0
2018-01-29T00:37:06.206Z,0
2018-01-29T00:38:08.712Z,0
2018-01-29T00:39:11.200Z,0
2018-01-29T00:40:13.695Z,0
2018-01-29T00:41:16.489Z,0
2018-01-29T00:42:19.278Z,0
2018-01-29T00:43:21.776Z,0
2018-01-29T00:44:24.280Z,0
2018-01-29T00:45:26.769Z,0
2018-01-29T00:46:29.285Z,0
2018-01-29T00:47:31.781Z,0
2018-01-29T00:48:34.278Z,0
2018-01-29T00:49:37.072Z,0
2018-01-29T00:50:39.571Z,0
2018-01-29T00:51:42.359Z,0
2018-01-29T00:52:44.865Z,0
2018-01-29T00:53:47.362Z,0
2018-01-29T00:54:49.864Z,0
2018-01-29T00:55:52.371Z,0
2018-01-29T00:56:54.866Z,0
2018-01-29T00:57:57.365Z,0
2018-01-29T00:58:59.863Z,0
2018-01-29T01:00:02.353Z,0
2018-01-29T01:01:04.864Z,0
2018-01-29T01:02:07.355Z,0
2018-01-29T01:03:09.855Z,0
2018-01-29T01:04:12.354Z,0
2018-01-29T01:05:14.851Z,0
2018-01-29T01:06:17.357Z,0
2018-01-29T01:07:19.857Z,0
2018-01-29T01:08:22.937Z,0
2018-01-29T01:09:25.444Z,0
2018-01-29T01:10:28.229Z,0
2018-01-29T01:11:30.735Z,0
2018-01-29T01:12:33.229Z,0
2018-01-29T01:13:35.730Z,0
2018-01-29T01:14:38.229Z,0
2018-01-29T01:15:40.737Z,0
2018-01-29T01:16:43.241Z,0
2018-01-29T01:17:45.739Z,0
2018-01-29T01:18:48.234Z,0
2018-01-29T01:19:50.750Z,0
2018-01-29T01:20:53.528Z,0
2018-01-29T01:21:56.074Z,0
2018-01-29T01:22:58.519Z,0
2018-01-29T01:24:01.023Z,0
2018-01-29T01:25:03.528Z,0
2018-01-29T01:26:06.031Z,0
2018-01-29T01:27:08.514Z,0
2018-01-29T01:28:11.014Z,0
2018-01-29T01:29:13.508Z,0
2018-01-29T01:30:16.012Z,0
2018-01-29T01:31:18.512Z,0
2018-01-29T01:32:21.008Z,0
2018-01-29T01:33:23.784Z,0
2018-01-29T01:34:26.291Z,0
2018-01-29T01:35:28.794Z,0
2018-01-29T01:36:31.280Z,0
2018-01-29T01:37:33.784Z,0
2018-01-29T01:38:36.289Z,0
2018-01-29T01:39:38.788Z,0
2018-01-29T01:40:41.295Z,0
2018-01-29T01:41:43.798Z,0
2018-01-29T01:42:46.278Z,0
2018-01-29T01:43:48.801Z,0
2018-01-29T01:44:51.601Z,0
2018-01-29T01:45:54.096Z,0
2018-01-29T01:46:56.596Z,0
2018-01-29T01:47:59.093Z,0
2018-01-29T01:49:01.588Z,0
2018-01-29T01:50:04.101Z,0
2018-01-29T01:51:06.586Z,0
2018-01-29T01:52:09.093Z,0
2018-01-29T01:53:11.590Z,0
2018-01-29T01:54:14.376Z,0
2018-01-29T01:55:16.877Z,0
2018-01-29T01:56:19.369Z,0
2018-01-29T01:57:21.864Z,0
2018-01-29T01:58:24.375Z,0
2018-01-29T01:59:26.874Z,0
2018-01-29T02:00:29.656Z,0
2018-01-29T02:01:32.156Z,0
2018-01-29T02:02:34.661Z,0
2018-01-29T02:03:37.154Z,0
2018-01-29T02:04:39.656Z,0
2018-01-29T02:05:42.442Z,0
2018-01-29T02:06:44.953Z,0
2018-01-29T02:07:47.748Z,0
2018-01-29T02:08:50.253Z,0
2018-01-29T02:09:52.765Z,0
2018-01-29T02:10:55.258Z,0
2018-01-29T02:11:57.754Z,0
2018-01-29T02:13:00.261Z,0
2018-01-29T02:14:02.755Z,0
2018-01-29T02:15:05.264Z,0
2018-01-29T02:16:08.370Z,0
2018-01-29T02:17:10.849Z,0
2018-01-29T02:18:13.353Z,0
2018-01-29T02:19:15.867Z,0
2018-01-29T02:20:18.362Z,0
2018-01-29T02:21:20.862Z,0
2018-01-29T02:22:23.347Z,0
2018-01-29T02:23:26.146Z,0
2018-01-29T02:24:28.656Z,0
2018-01-29T02:25:31.149Z,0
2018-01-29T02:26:33.649Z,0
2018-01-29T02:27:36.148Z,0
2018-01-29T02:28:38.642Z,0
2018-01-29T02:29:41.161Z,0
2018-01-29T02:30:43.659Z,0
2018-01-29T02:31:46.148Z,0
2018-01-29T02:32:48.936Z,0
2018-01-29T02:33:51.437Z,0
2018-01-29T02:34:53.947Z,0
2018-01-29T02:35:56.447Z,0
2018-01-29T02:36:59.238Z,0
2018-01-29T02:38:01.740Z,0
2018-01-29T02:39:04.529Z,0
2018-01-29T02:40:07.027Z,0
2018-01-29T02:41:09.832Z,0
2018-01-29T02:42:12.311Z,0
2018-01-29T02:43:14.814Z,0
2018-01-29T02:44:17.303Z,0
2018-01-29T02:45:19.804Z,0
2018-01-29T02:46:22.302Z,0
2018-01-29T02:47:24.806Z,0
2018-01-29T02:48:27.295Z,0
2018-01-29T02:49:30.387Z,0
2018-01-29T02:50:33.170Z,0
2018-01-29T02:51:35.679Z,0
2018-01-29T02:52:38.793Z,0
2018-01-29T02:53:41.294Z,0
2018-01-29T02:54:43.789Z,0
2018-01-29T02:55:46.306Z,0
2018-01-29T02:56:48.792Z,0
2018-01-29T02:57:51.305Z,0
2018-01-29T02:58:53.796Z,0
2018-01-29T02:59:56.297Z,0
2018-01-29T03:00:59.104Z,0
2018-01-29T03:02:01.611Z,0
2018-01-29T03:03:04.094Z,0
2018-01-29T03:04:06.602Z,0
2018-01-29T03:05:09.095Z,0
2018-01-29T03:06:11.602Z,0
2018-01-29T03:07:14.379Z,0
2018-01-29T03:08:16.878Z,0
2018-01-29T03:09:19.385Z,0
2018-01-29T03:10:21.876Z,0
2018-01-29T03:11:24.373Z,0
2018-01-29T03:12:26.868Z,0
2018-01-29T03:13:29.359Z,0
2018-01-29T03:14:31.869Z,0
2018-01-29T03:15:34.363Z,0
2018-01-29T03:16:36.864Z,0
2018-01-29T03:17:39.365Z,0
2018-01-29T03:18:41.867Z,0
2018-01-29T03:19:44.649Z,0
2018-01-29T03:20:47.149Z,0
2018-01-29T03:21:49.645Z,0
2018-01-29T03:22:52.140Z,0
2018-01-29T03:23:54.656Z,0
2018-01-29T03:24:57.149Z,0
2018-01-29T03:25:59.645Z,0
2018-01-29T03:27:02.143Z,0
2018-01-29T03:28:04.639Z,0
2018-01-29T03:29:07.133Z,0
2018-01-29T03:30:09.636Z,0
2018-01-29T03:31:12.122Z,0
2018-01-29T03:32:14.626Z,0
2018-01-29T03:33:17.139Z,0
2018-01-29T03:34:19.630Z,0
2018-01-29T03:35:22.130Z,0
2018-01-29T03:36:24.627Z,0
2018-01-29T03:37:27.422Z,0
2018-01-29T03:38:29.912Z,0
2018-01-29T03:39:32.414Z,0
2018-01-29T03:40:34.918Z,0
2018-01-29T03:41:37.432Z,0
2018-01-29T03:42:40.211Z,0
2018-01-29T03:43:42.717Z,0
2018-01-29T03:44:45.205Z,0
2018-01-29T03:45:48.009Z,0
2018-01-29T03:46:50.797Z,0
2018-01-29T03:47:53.283Z,0
2018-01-29T03:48:55.799Z,0
2018-01-29T03:49:58.575Z,0
2018-01-29T03:51:01.372Z,0
2018-01-29T03:52:03.869Z,0
2018-01-29T03:53:06.372Z,0
2018-01-29T03:54:09.155Z,0
2018-01-29T03:55:11.955Z,0
2018-01-29T03:56:14.440Z,0
2018-01-29T03:57:16.948Z,0
2018-01-29T03:58:19.444Z,0
2018-01-29T03:59:21.936Z,0
2018-01-29T04:00:24.440Z,0
2018-01-29T04:01:26.939Z,0
2018-01-29T04:02:29.436Z,0
2018-01-29T04:03:31.934Z,0
2018-01-29T04:04:34.442Z,0
2018-01-29T04:05:36.940Z,0
2018-01-29T04:06:39.438Z,0
2018-01-29T04:07:41.934Z,0
2018-01-29T04:08:44.433Z,0
2018-01-29T04:09:46.921Z,0
2018-01-29T04:10:49.723Z,0
2018-01-29T04:11:52.202Z,0
2018-01-29T04:12:54.708Z,0
2018-01-29T04:13:57.215Z,0
2018-01-29T04:14:59.709Z,0
2018-01-29T04:16:02.214Z,0
2018-01-29T04:17:04.714Z,0
2018-01-29T04:18:07.213Z,0
2018-01-29T04:19:09.715Z,0
2018-01-29T04:20:12.222Z,0
2018-01-29T04:21:14.696Z,0
2018-01-29T04:22:17.203Z,0
2018-01-29T04:23:19.697Z,0
2018-01-29T04:24:22.201Z,0
2018-01-29T04:25:24.707Z,0
2018-01-29T04:26:27.491Z,0
2018-01-29T04:27:29.989Z,0
2018-01-29T04:28:32.499Z,0
2018-01-29T04:29:34.992Z,0
2018-01-29T04:30:37.494Z,0
2018-01-29T04:31:39.984Z,0
2018-01-29T04:32:42.481Z,0
2018-01-29T04:33:44.973Z,0
2018-01-29T04:34:47.466Z,0
2018-01-29T04:35:49.976Z,0
2018-01-29T04:36:52.477Z,0
2018-01-29T04:37:54.960Z,0
2018-01-29T04:38:57.459Z,0
2018-01-29T04:40:00.244Z,0
2018-01-29T04:41:02.794Z,0
2018-01-29T04:42:05.297Z,0
2018-01-29T04:43:07.785Z,0
2018-01-29T04:44:10.277Z,0
2018-01-29T04:45:12.797Z,0
2018-01-29T04:46:15.295Z,0
2018-01-29T04:47:17.790Z,0
2018-01-29T04:48:20.580Z,0
2018-01-29T04:49:23.076Z,0
2018-01-29T04:50:25.577Z,0
2018-01-29T04:51:28.073Z,0
2018-01-29T04:52:30.568Z,0
2018-01-29T04:53:33.068Z,0
2018-01-29T04:54:35.569Z,0
2018-01-29T04:55:38.347Z,0
2018-01-29T04:56:41.150Z,0
2018-01-29T04:57:43.947Z,0
2018-01-29T04:58:46.730Z,0
2018-01-29T04:59:49.526Z,0
2018-01-29T05:00:52.021Z,0
2018-01-29T05:01:54.524Z,0
2018-01-29T05:02:57.025Z,0
2018-01-29T05:03:59.520Z,0
2018-01-29T05:05:02.026Z,0
2018-01-29T05:06:04.803Z,0
2018-01-29T05:07:07.299Z,0
2018-01-29T05:08:10.082Z,0
2018-01-29T05:09:12.604Z,0
2018-01-29T05:10:15.090Z,0
2018-01-29T05:11:17.601Z,0
2018-01-29T05:12:20.091Z,0
2018-01-29T05:13:22.586Z,0
2018-01-29T05:14:25.087Z,0
2018-01-29T05:15:27.667Z,0
2018-01-29T05:16:30.157Z,0
2018-01-29T05:17:32.664Z,0
2018-01-29T05:18:35.156Z,0
2018-01-29T05:19:37.654Z,0
2018-01-29T05:20:40.151Z,0
2018-01-29T05:21:42.663Z,0
2018-01-29T05:22:45.150Z,0
2018-01-29T05:23:47.654Z,0
2018-01-29T05:24:50.440Z,0
2018-01-29T05:25:52.943Z,0
2018-01-29T05:26:55.450Z,0
2018-01-29T05:27:57.948Z,0
2018-01-29T05:29:00.442Z,0
2018-01-29T05:30:02.947Z,0
2018-01-29T05:31:05.440Z,0
2018-01-29T05:32:07.943Z,0
2018-01-29T05:33:10.430Z,0
2018-01-29T05:34:12.939Z,0
2018-01-29T05:35:15.424Z,0
2018-01-29T05:36:18.221Z,0
2018-01-29T05:37:20.719Z,0
2018-01-29T05:38:23.214Z,0
2018-01-29T05:39:25.715Z,0
2018-01-29T05:40:28.206Z,0
2018-01-29T05:41:30.699Z,0
2018-01-29T05:42:33.195Z,0
2018-01-29T05:43:35.694Z,0
2018-01-29T05:44:38.470Z,0
2018-01-29T05:45:41.256Z,0
2018-01-29T05:46:43.758Z,0
2018-01-29T05:47:46.251Z,0
2018-01-29T05:48:48.750Z,0
2018-01-29T05:49:51.240Z,0
2018-01-29T05:50:53.736Z,0
2018-01-29T05:51:56.559Z,0
2018-01-29T05:52:59.341Z,0
2018-01-29T05:54:01.830Z,0
2018-01-29T05:55:04.336Z,0
2018-01-29T05:56:06.837Z,0
2018-01-29T05:57:09.334Z,0
2018-01-29T05:58:11.836Z,0
2018-01-29T05:59:14.332Z,0
2018-01-29T06:00:16.825Z,0
2018-01-29T06:01:19.341Z,0
2018-01-29T06:02:21.827Z,0
2018-01-29T06:03:24.329Z,0
2018-01-29T06:04:27.116Z,0
2018-01-29T06:05:29.908Z,0
2018-01-29T06:06:32.397Z,0
2018-01-29T06:07:34.898Z,0
2018-01-29T06:08:37.402Z,0
2018-01-29T06:09:40.180Z,0
2018-01-29T06:10:42.990Z,0
2018-01-29T06:11:45.485Z,0
2018-01-29T06:12:47.980Z,0
2018-01-29T06:13:50.482Z,0
2018-01-29T06:14:52.980Z,0
2018-01-29T06:15:55.482Z,0
2018-01-29T06:16:57.982Z,0
2018-01-29T06:18:00.467Z,0
2018-01-29T06:19:02.967Z,0
2018-01-29T06:20:05.477Z,0
2018-01-29T06:21:07.965Z,0
2018-01-29T06:22:10.745Z,0
2018-01-29T06:23:13.246Z,0
2018-01-29T06:24:15.738Z,0
2018-01-29T06:25:18.247Z,0
2018-01-29T06:26:20.751Z,0
2018-01-29T06:27:23.228Z,0
2018-01-29T06:28:25.738Z,0
2018-01-29T06:29:28.242Z,0
2018-01-29T06:30:30.743Z,0
2018-01-29T06:31:33.231Z,0
2018-01-29T06:32:35.750Z,0
2018-01-29T06:33:38.254Z,0
2018-01-29T06:34:41.022Z,0
2018-01-29T06:35:43.524Z,0
2018-01-29T06:36:46.018Z,4
2018-01-29T06:37:48.529Z,4
2018-01-29T06:38:51.319Z,4
2018-01-29T06:39:53.808Z,4
2018-01-29T06:40:56.304Z,4
2018-01-29T06:41:58.814Z,4
2018-01-29T06:43:01.305Z,4
2018-01-29T06:44:03.811Z,4
2018-01-29T06:45:06.584Z,8
2018-01-29T06:46:09.090Z,8
2018-01-29T06:47:11.589Z,8
2018-01-29T06:48:14.087Z,12
2018-01-29T06:49:16.876Z,16
2018-01-29T06:50:19.424Z,12
2018-01-29T06:51:21.880Z,20
2018-01-29T06:52:24.388Z,20
2018-01-29T06:53:26.873Z,20
2018-01-29T06:54:29.376Z,20
2018-01-29T06:55:31.888Z,24
2018-01-29T06:56:34.371Z,28
2018-01-29T06:57:36.872Z,32
2018-01-29T06:58:39.366Z,32
2018-01-29T06:59:41.854Z,32
2018-01-29T07:00:44.375Z,40
2018-01-29T07:01:46.854Z,52
2018-01-29T07:02:49.650Z,36
2018-01-29T07:03:52.144Z,40
2018-01-29T07:04:54.930Z,48
2018-01-29T07:05:57.431Z,44
2018-01-29T07:06:59.929Z,72
2018-01-29T07:08:02.416Z,72
2018-01-29T07:09:05.217Z,52
2018-01-29T07:10:07.702Z,60
2018-01-29T07:11:10.207Z,60
2018-01-29T07:12:12.703Z,68
2018-01-29T07:13:15.209Z,100
2018-01-29T07:14:17.700Z,96
2018-01-29T07:15:20.205Z,116
2018-01-29T07:16:22.995Z,128
2018-01-29T07:17:25.495Z,104
2018-01-29T07:18:27.988Z,92
2018-01-29T07:19:30.490Z,108
2018-01-29T07:20:32.990Z,196
2018-01-29T07:21:35.495Z,220
2018-01-29T07:22:37.982Z,204
2018-01-29T07:23:40.487Z,256
2018-01-29T07:24:42.973Z,260
2018-01-29T07:25:45.480Z,252
2018-01-29T07:26:47.979Z,216
2018-01-29T07:27:50.480Z,364
2018-01-29T07:28:52.974Z,268
2018-01-29T07:29:55.483Z,364
2018-01-29T07:30:57.970Z,384
2018-01-29T07:32:00.474Z,424
2018-01-29T07:33:02.965Z,480
2018-01-29T07:34:05.461Z,328
2018-01-29T07:35:07.957Z,328
2018-01-29T07:36:10.453Z,448
2018-01-29T07:37:12.954Z,404
2018-01-29T07:38:15.457Z,592
2018-01-29T07:39:17.955Z,504
2018-01-29T07:40:20.748Z,352
2018-01-29T07:41:23.238Z,412
2018-01-29T07:42:25.736Z,560
2018-01-29T07:43:28.545Z,452
2018-01-29T07:44:31.039Z,548
2018-01-29T07:45:33.826Z,424
2018-01-29T07:46:36.613Z,384
2018-01-29T07:47:39.096Z,400
2018-01-29T07:48:41.614Z,516
2018-01-29T07:49:44.108Z,520
2018-01-29T07:50:46.607Z,524
2018-01-29T07:51:49.110Z,436
2018-01-29T07:52:51.604Z,428
2018-01-29T07:53:54.106Z,484
2018-01-29T07:54:56.608Z,584
2018-01-29T07:55:59.093Z,552
2018-01-29T07:57:01.593Z,576
2018-01-29T07:58:04.100Z,612
2018-01-29T07:59:07.175Z,552
2018-01-29T08:00:09.673Z,560
2018-01-29T08:01:12.176Z,548
2018-01-29T08:02:14.674Z,504
2018-01-29T08:03:17.167Z,580
2018-01-29T08:04:19.670Z,540
2018-01-29T08:05:22.172Z,584
2018-01-29T08:06:24.663Z,696
2018-01-29T08:07:27.162Z,608
2018-01-29T08:08:29.662Z,568
2018-01-29T08:09:32.166Z,560
2018-01-29T08:10:34.658Z,608
2018-01-29T08:11:37.154Z,580
2018-01-29T08:12:39.940Z,708
2018-01-29T08:13:42.438Z,1148
2018-01-29T08:14:44.939Z,740
2018-01-29T08:15:47.437Z,756
2018-01-29T08:16:50.220Z,796
2018-01-29T08:17:52.715Z,844
2018-01-29T08:18:55.209Z,812
2018-01-29T08:19:57.718Z,872
2018-01-29T08:21:00.220Z,1076
2018-01-29T08:22:02.714Z,1292
2018-01-29T08:23:05.218Z,1092
2018-01-29T08:24:07.715Z,1276
2018-01-29T08:25:10.214Z,1380
2018-01-29T08:26:13.001Z,1176
2018-01-29T08:27:15.497Z,1000
2018-01-29T08:28:17.986Z,1240
2018-01-29T08:29:20.479Z,1296
2018-01-29T08:30:22.989Z,1412
2018-01-29T08:31:25.474Z,1260
2018-01-29T08:32:27.974Z,1296
2018-01-29T08:33:30.782Z,1320
2018-01-29T08:34:33.271Z,1380
2018-01-29T08:35:35.766Z,992
2018-01-29T08:36:38.569Z,1052
2018-01-29T08:37:41.358Z,1324
2018-01-29T08:38:43.858Z,1132
2018-01-29T08:39:46.462Z,928
2018-01-29T08:40:48.839Z,1196
2018-01-29T08:41:51.349Z,1060
2018-01-29T08:42:53.875Z,1116
2018-01-29T08:43:56.670Z,1204
2018-01-29T08:44:59.179Z,1024
2018-01-29T08:46:01.661Z,952
2018-01-29T08:47:04.159Z,1180
2018-01-29T08:48:06.668Z,1272
2018-01-29T08:49:09.162Z,1240
2018-01-29T08:50:11.664Z,1144
2018-01-29T08:51:14.162Z,1348
2018-01-29T08:52:16.940Z,1172
2018-01-29T08:53:19.735Z,1236
2018-01-29T08:54:22.230Z,1448
2018-01-29T08:55:24.720Z,1556
2018-01-29T08:56:27.225Z,1396
2018-01-29T08:57:30.014Z,1256
2018-01-29T08:58:32.511Z,1500
2018-01-29T08:59:35.289Z,1716
2018-01-29T09:00:38.368Z,1628
2018-01-29T09:01:40.864Z,1900
2018-01-29T09:02:43.370Z,1768
2018-01-29T09:03:46.160Z,2096
2018-01-29T09:04:48.639Z,2124
2018-01-29T09:05:51.135Z,1868
2018-01-29T09:06:53.693Z,2340
2018-01-29T09:07:56.448Z,2368
2018-01-29T09:08:58.946Z,2612
2018-01-29T09:10:01.734Z,2684
2018-01-29T09:11:04.233Z,2344
2018-01-29T09:12:06.740Z,2308
2018-01-29T09:13:09.236Z,2320
2018-01-29T09:14:11.725Z,2348
2018-01-29T09:15:14.236Z,2800
2018-01-29T09:16:16.730Z,2848
2018-01-29T09:17:19.232Z,2864
2018-01-29T09:18:22.013Z,3176
2018-01-29T09:19:24.496Z,3024
2018-01-29T09:20:26.996Z,3280
2018-01-29T09:21:29.508Z,3640
2018-01-29T09:22:32.001Z,2952
2018-01-29T09:23:34.499Z,2936
2018-01-29T09:24:37.287Z,3388
2018-01-29T09:25:39.791Z,3336
2018-01-29T09:26:42.301Z,2928
2018-01-29T09:27:44.806Z,2824
2018-01-29T09:28:47.574Z,2972
2018-01-29T09:29:50.071Z,3148
2018-01-29T09:30:52.587Z,3300
2018-01-29T09:31:55.075Z,3800
2018-01-29T09:32:57.579Z,4172
2018-01-29T09:34:00.078Z,4068
2018-01-29T09:35:02.577Z,4168
2018-01-29T09:36:05.071Z,4020
2018-01-29T09:37:07.583Z,4092
2018-01-29T09:38:10.069Z,4196
2018-01-29T09:39:12.878Z,4156
2018-01-29T09:40:15.381Z,4000
2018-01-29T09:41:17.875Z,4344
2018-01-29T09:42:20.373Z,4376
2018-01-29T09:43:22.886Z,4612
2018-01-29T09:44:25.660Z,4188
2018-01-29T09:45:28.179Z,4220
2018-01-29T09:46:30.669Z,4412
2018-01-29T09:47:33.174Z,3396
2018-01-29T09:48:35.667Z,3600
2018-01-29T09:49:38.170Z,4100
2018-01-29T09:50:40.970Z,3836
2018-01-29T09:51:44.060Z,4340
2018-01-29T09:52:46.541Z,3412
2018-01-29T09:53:49.333Z,3888
2018-01-29T09:54:52.127Z,3928
2018-01-29T09:55:54.624Z,3708
2018-01-29T09:56:57.412Z,3572
2018-01-29T09:57:59.911Z,3716
2018-01-29T09:59:02.409Z,5332
2018-01-29T10:00:05.206Z,5220
2018-01-29T10:01:07.699Z,5324
2018-01-29T10:02:10.205Z,5172
2018-01-29T10:03:12.698Z,4736
2018-01-29T10:04:15.188Z,4508
2018-01-29T10:05:17.682Z,4840
2018-01-29T10:06:20.539Z,4508
2018-01-29T10:07:23.328Z,4068
2018-01-29T10:08:25.827Z,3768
2018-01-29T10:09:28.324Z,3616
2018-01-29T10:10:30.830Z,3004
2018-01-29T10:11:33.323Z,2936
2018-01-29T10:12:35.828Z,2688
2018-01-29T10:13:38.350Z,2652
2018-01-29T10:14:40.816Z,2396
2018-01-29T10:15:43.314Z,2152
2018-01-29T10:16:46.119Z,2080
2018-01-29T10:17:48.643Z,2348
2018-01-29T10:18:51.409Z,2132
2018-01-29T10:19:53.935Z,1968
2018-01-29T10:20:56.753Z,2536
2018-01-29T10:21:59.908Z,2532
2018-01-29T10:23:02.610Z,2640
2018-01-29T10:24:05.348Z,2448
2018-01-29T10:25:07.851Z,2656
2018-01-29T10:26:10.354Z,3116
2018-01-29T10:27:12.858Z,2884
2018-01-29T10:28:15.357Z,2600
2018-01-29T10:29:18.139Z,2352
2018-01-29T10:30:20.657Z,2180
2018-01-29T10:31:23.146Z,2340
2018-01-29T10:32:25.930Z,2332
2018-01-29T10:33:28.429Z,2408
2018-01-29T10:34:30.933Z,2436
2018-01-29T10:35:33.427Z,2960
2018-01-29T10:36:35.933Z,3228
2018-01-29T10:37:38.422Z,2844
2018-01-29T10:38:40.922Z,2972
2018-01-29T10:39:43.426Z,3000
2018-01-29T10:40:45.910Z,2684
2018-01-29T10:41:48.418Z,2984
2018-01-29T10:42:50.914Z,3656
2018-01-29T10:43:53.411Z,3304
2018-01-29T10:44:55.922Z,3624
2018-01-29T10:45:58.709Z,3076
2018-01-29T10:47:01.206Z,3216
2018-01-29T10:48:03.703Z,2996
2018-01-29T10:49:06.207Z,2724
2018-01-29T10:50:08.700Z,3024
2018-01-29T10:51:11.209Z,3240
2018-01-29T10:52:13.687Z,4400
2018-01-29T10:53:16.192Z,3360
2018-01-29T10:54:18.697Z,3400
2018-01-29T10:55:21.188Z,3132
2018-01-29T10:56:23.978Z,3068
2018-01-29T10:57:27.057Z,3188
2018-01-29T10:58:29.571Z,3212
2018-01-29T10:59:32.050Z,3304
2018-01-29T11:00:34.549Z,3384
2018-01-29T11:01:37.060Z,3460
2018-01-29T11:02:39.555Z,3368
2018-01-29T11:03:42.058Z,2880
2018-01-29T11:04:44.556Z,2796
2018-01-29T11:05:47.051Z,3376
2018-01-29T11:06:49.852Z,2984
2018-01-29T11:07:52.350Z,2680
2018-01-29T11:08:54.837Z,2776
2018-01-29T11:09:57.372Z,2776
2018-01-29T11:10:59.865Z,2832
2018-01-29T11:12:02.655Z,2848
2018-01-29T11:13:05.145Z,2348
2018-01-29T11:14:08.211Z,2852
2018-01-29T11:15:10.707Z,2704
2018-01-29T11:16:13.207Z,3396
2018-01-29T11:17:15.985Z,2888
2018-01-29T11:18:18.481Z,3232
2018-01-29T11:19:21.268Z,3432
2018-01-29T11:20:23.781Z,3764
2018-01-29T11:21:26.268Z,3508
2018-01-29T11:22:28.762Z,4496
2018-01-29T11:23:31.270Z,4636
2018-01-29T11:24:34.045Z,3504
2018-01-29T11:25:36.552Z,3488
2018-01-29T11:26:39.050Z,3224
2018-01-29T11:27:42.118Z,3192
2018-01-29T11:28:44.917Z,3412
2018-01-29T11:29:47.413Z,3488
2018-01-29T11:30:49.912Z,3488
2018-01-29T11:31:52.404Z,3868
2018-01-29T11:32:54.912Z,3824
2018-01-29T11:33:57.401Z,4328
2018-01-29T11:35:00.198Z,3924
2018-01-29T11:36:02.686Z,3380
2018-01-29T11:37:05.182Z,3828
2018-01-29T11:38:07.678Z,3836
2018-01-29T11:39:10.532Z,4120
2018-01-29T11:40:13.028Z,3796
2018-01-29T11:41:15.535Z,3344
2018-01-29T11:42:18.029Z,4188
2018-01-29T11:43:20.521Z,4872
2018-01-29T11:44:23.029Z,5104
2018-01-29T11:45:25.528Z,4920
2018-01-29T11:46:28.022Z,4268
2018-01-29T11:47:30.810Z,4472
2018-01-29T11:48:33.307Z,3708
2018-01-29T11:49:35.805Z,5344
2018-01-29T11:50:38.310Z,5112
2018-01-29T11:51:41.075Z,5132
2018-01-29T11:52:43.864Z,4528
2018-01-29T11:53:46.373Z,4680
2018-01-29T11:54:48.865Z,5140
2018-01-29T11:55:51.366Z,5280
2018-01-29T11:56:54.147Z,4580
2018-01-29T11:57:56.942Z,5396
2018-01-29T11:58:59.435Z,5908
2018-01-29T12:00:01.932Z,5140
2018-01-29T12:01:04.432Z,5324
2018-01-29T12:02:06.924Z,5276
2018-01-29T12:03:09.714Z,4756
2018-01-29T12:04:12.501Z,4044
2018-01-29T12:05:14.994Z,4192
2018-01-29T12:06:17.491Z,3836
2018-01-29T12:07:19.999Z,5144
2018-01-29T12:08:22.481Z,5156
2018-01-29T12:09:24.986Z,5016
2018-01-29T12:10:27.481Z,4424
2018-01-29T12:11:29.977Z,5056
2018-01-29T12:12:32.478Z,6152
2018-01-29T12:13:34.971Z,5140
2018-01-29T12:14:37.472Z,4692
2018-01-29T12:15:39.975Z,4432
2018-01-29T12:16:42.767Z,5336
2018-01-29T12:17:45.252Z,4400
2018-01-29T12:18:47.750Z,4496
2018-01-29T12:19:50.249Z,5944
2018-01-29T12:20:52.742Z,4884
2018-01-29T12:21:55.240Z,6428
2018-01-29T12:22:57.729Z,5360
2018-01-29T12:24:00.214Z,5196
2018-01-29T12:25:02.733Z,4060
2018-01-29T12:26:05.569Z,4140
2018-01-29T12:27:08.001Z,4888
2018-01-29T12:28:10.815Z,4784
2018-01-29T12:29:13.302Z,4904
2018-01-29T12:30:15.807Z,4344
2018-01-29T12:31:18.292Z,5412
2018-01-29T12:32:21.101Z,4512
2018-01-29T12:33:23.593Z,4620
2018-01-29T12:34:26.086Z,5152
2018-01-29T12:35:28.589Z,5016
2018-01-29T12:36:31.091Z,4496
2018-01-29T12:37:33.883Z,5476
2018-01-29T12:38:36.381Z,5352
2018-01-29T12:39:38.865Z,4608
2018-01-29T12:40:41.674Z,5096
2018-01-29T12:41:44.185Z,4836
2018-01-29T12:42:47.288Z,5152
2018-01-29T12:43:49.794Z,6308
2018-01-29T12:44:52.293Z,5628
2018-01-29T12:45:54.783Z,6140
2018-01-29T12:46:57.570Z,5116
2018-01-29T12:48:00.065Z,4968
2018-01-29T12:49:02.555Z,5232
2018-01-29T12:50:05.069Z,5836
2018-01-29T12:51:07.546Z,5632
2018-01-29T12:52:10.341Z,5508
2018-01-29T12:53:12.835Z,5912
2018-01-29T12:54:15.333Z,5124
2018-01-29T12:55:17.830Z,4660
2018-01-29T12:56:20.331Z,4244
2018-01-29T12:57:22.817Z,4612
2018-01-29T12:58:25.329Z,5504
2018-01-29T12:59:27.820Z,5376
2018-01-29T13:00:30.313Z,4960
2018-01-29T13:01:32.804Z,3972
2018-01-29T13:02:35.303Z,4556
2018-01-29T13:03:37.797Z,3392
2018-01-29T13:04:40.306Z,3360
2018-01-29T13:05:42.790Z,3080
2018-01-29T13:06:45.292Z,2816
2018-01-29T13:07:47.792Z,3200
2018-01-29T13:08:50.284Z,2588
2018-01-29T13:09:52.787Z,2456
2018-01-29T13:10:55.277Z,2868
2018-01-29T13:11:57.779Z,2372
2018-01-29T13:13:00.288Z,2532
2018-01-29T13:14:02.783Z,2560
2018-01-29T13:15:05.262Z,2220
2018-01-29T13:16:07.758Z,2028
2018-01-29T13:17:10.260Z,2168
2018-01-29T13:18:12.748Z,2088
2018-01-29T13:19:15.243Z,1692
2018-01-29T13:20:18.023Z,1896
2018-01-29T13:21:20.520Z,1568
2018-01-29T13:22:23.028Z,1424
2018-01-29T13:23:25.522Z,1828
2018-01-29T13:24:28.016Z,1816
2018-01-29T13:25:30.516Z,2140
2018-01-29T13:26:33.019Z,1956
2018-01-29T13:27:35.509Z,2568
2018-01-29T13:28:38.002Z,2140
2018-01-29T13:29:40.792Z,2336
2018-01-29T13:30:43.281Z,2636
2018-01-29T13:31:45.784Z,2060
2018-01-29T13:32:48.275Z,2292
2018-01-29T13:33:50.784Z,2204
2018-01-29T13:34:53.278Z,2912
2018-01-29T13:35:55.780Z,2724
2018-01-29T13:36:58.267Z,3240
2018-01-29T13:38:00.767Z,2524
2018-01-29T13:39:03.269Z,2464
2018-01-29T13:40:05.770Z,2640
2018-01-29T13:41:08.535Z,2912
2018-01-29T13:42:11.037Z,2476
2018-01-29T13:43:13.530Z,2304
2018-01-29T13:44:16.027Z,1816
2018-01-29T13:45:18.523Z,1816
2018-01-29T13:46:21.017Z,2508
2018-01-29T13:47:23.507Z,2000
2018-01-29T13:48:26.327Z,2132
2018-01-29T13:49:28.789Z,1856
2018-01-29T13:50:31.298Z,2312
2018-01-29T13:51:33.786Z,2224
2018-01-29T13:52:36.297Z,2560
2018-01-29T13:53:38.812Z,2404
2018-01-29T13:54:41.328Z,2904
2018-01-29T13:55:44.425Z,2116
2018-01-29T13:56:46.935Z,2896
2018-01-29T13:57:49.452Z,2428
2018-01-29T13:58:51.961Z,1872
2018-01-29T13:59:54.469Z,2308
2018-01-29T14:00:57.267Z,2104
2018-01-29T14:01:59.780Z,2072
2018-01-29T14:03:02.284Z,2516
2018-01-29T14:04:05.110Z,1936
2018-01-29T14:05:07.608Z,2052
2018-01-29T14:06:10.109Z,1948
2018-01-29T14:07:12.886Z,1908
2018-01-29T14:08:15.385Z,2484
2018-01-29T14:09:17.882Z,1868
2018-01-29T14:10:20.682Z,1616
2018-01-29T14:11:23.458Z,1308
2018-01-29T14:12:25.955Z,1324
2018-01-29T14:13:28.447Z,1424
2018-01-29T14:14:30.938Z,1196
2018-01-29T14:15:33.434Z,1088
2018-01-29T14:16:35.934Z,1124
2018-01-29T14:17:38.432Z,1212
2018-01-29T14:18:40.938Z,1264
2018-01-29T14:19:43.721Z,872
2018-01-29T14:20:46.510Z,1044
2018-01-29T14:21:49.004Z,972
2018-01-29T14:22:51.813Z,868
2018-01-29T14:23:54.295Z,712
2018-01-29T14:24:56.797Z,1108
2018-01-29T14:25:59.296Z,1136
2018-01-29T14:27:01.790Z,1060
2018-01-29T14:28:04.592Z,1092
2018-01-29T14:29:07.387Z,968
2018-01-29T14:30:09.887Z,888
2018-01-29T14:31:12.665Z,1076
2018-01-29T14:32:15.165Z,1112
2018-01-29T14:33:17.960Z,1204
2018-01-29T14:34:20.457Z,1352
2018-01-29T14:35:22.976Z,1468
2018-01-29T14:36:25.466Z,1164
2018-01-29T14:37:28.276Z,1048